sensor_id;sensor_type;location;lat;lon;timestamp;P1;durP1;ratioP1;P2;durP2;ratioP2
27127;SDS011;14660;49.008;8.390;2022-10-31T00:01:32;12.48;;;5.35;;
27127;SDS011;14660;49.008;8.390;2022-10-31T00:04:00;11.48;;;5.63;;
27127;SDS011;14660;49.008;8.390;2022-10-31T00:06:28;9.27;;;5.18;;
27127;SDS011;14660;49.008;8.390;2022-10-31T00:08:56;7.35;;;4.93;;
27127;SDS011;14660;49.008;8.390;2022-10-31T00:11:23;9.40;;;5.03;;
27127;SDS011;14660;49.008;8.390;2022-10-31T00:13:50;9.60;;;4.75;;
27127;SDS011;14660;49.008;8.390;2022-10-31T00:16:21;6.55;;;4.68;;
27127;SDS011;14660;49.008;8.390;2022-10-31T00:18:56;7.50;;;3.72;;
27127;SDS011;14660;49.008;8.390;2022-10-31T00:21:23;10.00;;;5.10;;
27127;SDS011;14660;49.008;8.390;2022-10-31T00:23:52;13.48;;;5.07;;
27127;SDS011;14660;49.008;8.390;2022-10-31T00:26:20;10.30;;;4.95;;
27127;SDS011;14660;49.008;8.390;2022-10-31T00:28:55;12.07;;;5.05;;
27127;SDS011;14660;49.008;8.390;2022-10-31T00:31:22;7.00;;;4.88;;
27127;SDS011;14660;49.008;8.390;2022-10-31T00:33:49;8.20;;;4.60;;
27127;SDS011;14660;49.008;8.390;2022-10-31T00:36:17;10.45;;;5.70;;
27127;SDS011;14660;49.008;8.390;2022-10-31T00:38:46;10.07;;;4.75;;
27127;SDS011;14660;49.008;8.390;2022-10-31T00:41:15;13.07;;;5.13;;
27127;SDS011;14660;49.008;8.390;2022-10-31T00:43:43;8.95;;;4.70;;
27127;SDS011;14660;49.008;8.390;2022-10-31T00:46:12;14.52;;;5.20;;
27127;SDS011;14660;49.008;8.390;2022-10-31T00:48:39;8.43;;;5.07;;
27127;SDS011;14660;49.008;8.390;2022-10-31T00:51:08;8.20;;;4.40;;
27127;SDS011;14660;49.008;8.390;2022-10-31T00:53:35;11.32;;;4.65;;
27127;SDS011;14660;49.008;8.390;2022-10-31T00:56:03;10.43;;;4.60;;
27127;SDS011;14660;49.008;8.390;2022-10-31T00:58:28;7.28;;;4.63;;
27127;SDS011;14660;49.008;8.390;2022-10-31T01:00:57;8.25;;;4.85;;
27127;SDS011;14660;49.008;8.390;2022-10-31T01:03:26;9.02;;;4.82;;
27127;SDS011;14660;49.008;8.390;2022-10-31T01:08:40;9.57;;;5.32;;
27127;SDS011;14660;49.008;8.390;2022-10-31T01:11:12;12.93;;;5.20;;
27127;SDS011;14660;49.008;8.390;2022-10-31T01:13:41;11.52;;;7.15;;
27127;SDS011;14660;49.008;8.390;2022-10-31T01:16:09;10.70;;;5.50;;
27127;SDS011;14660;49.008;8.390;2022-10-31T01:18:37;11.25;;;5.88;;
27127;SDS011;14660;49.008;8.390;2022-10-31T01:23:50;12.20;;;6.30;;
27127;SDS011;14660;49.008;8.390;2022-10-31T01:26:24;8.07;;;4.75;;
27127;SDS011;14660;49.008;8.390;2022-10-31T01:28:53;14.38;;;5.35;;
27127;SDS011;14660;49.008;8.390;2022-10-31T01:31:26;9.45;;;4.78;;
27127;SDS011;14660;49.008;8.390;2022-10-31T01:33:57;12.80;;;5.53;;
27127;SDS011;14660;49.008;8.390;2022-10-31T01:36:38;9.02;;;4.85;;
27127;SDS011;14660;49.008;8.390;2022-10-31T01:39:07;8.50;;;5.10;;
27127;SDS011;14660;49.008;8.390;2022-10-31T01:41:41;9.40;;;4.97;;
27127;SDS011;14660;49.008;8.390;2022-10-31T01:49:49;8.43;;;4.90;;
27127;SDS011;14660;49.008;8.390;2022-10-31T01:55:15;7.55;;;4.63;;
27127;SDS011;14660;49.008;8.390;2022-10-31T01:58:04;9.85;;;4.78;;
27127;SDS011;14660;49.008;8.390;2022-10-31T02:00:39;9.15;;;4.85;;
27127;SDS011;14660;49.008;8.390;2022-10-31T02:03:13;9.85;;;5.75;;
27127;SDS011;14660;49.008;8.390;2022-10-31T02:05:42;11.57;;;5.28;;
27127;SDS011;14660;49.008;8.390;2022-10-31T02:11:00;10.52;;;5.10;;
27127;SDS011;14660;49.008;8.390;2022-10-31T02:13:29;9.15;;;5.18;;
27127;SDS011;14660;49.008;8.390;2022-10-31T02:15:58;11.98;;;5.00;;
27127;SDS011;14660;49.008;8.390;2022-10-31T02:18:26;8.70;;;5.25;;
27127;SDS011;14660;49.008;8.390;2022-10-31T02:26:51;6.97;;;4.45;;
27127;SDS011;14660;49.008;8.390;2022-10-31T02:48:08;6.15;;;4.20;;
27127;SDS011;14660;49.008;8.390;2022-10-31T02:50:40;7.53;;;4.72;;
27127;SDS011;14660;49.008;8.390;2022-10-31T02:53:14;11.55;;;5.07;;
27127;SDS011;14660;49.008;8.390;2022-10-31T02:55:58;8.90;;;5.18;;
27127;SDS011;14660;49.008;8.390;2022-10-31T02:58:52;8.45;;;4.63;;
27127;SDS011;14660;49.008;8.390;2022-10-31T03:07:53;9.18;;;4.00;;
27127;SDS011;14660;49.008;8.390;2022-10-31T03:10:41;6.88;;;4.10;;
27127;SDS011;14660;49.008;8.390;2022-10-31T03:19:34;11.95;;;4.30;;
27127;SDS011;14660;49.008;8.390;2022-10-31T03:22:41;7.82;;;4.45;;
27127;SDS011;14660;49.008;8.390;2022-10-31T03:25:02;6.22;;;4.28;;
27127;SDS011;14660;49.008;8.390;2022-10-31T03:27:35;6.93;;;3.85;;
27127;SDS011;14660;49.008;8.390;2022-10-31T03:30:04;6.47;;;3.95;;
27127;SDS011;14660;49.008;8.390;2022-10-31T03:32:41;6.75;;;3.60;;
27127;SDS011;14660;49.008;8.390;2022-10-31T03:35:29;7.43;;;3.28;;
27127;SDS011;14660;49.008;8.390;2022-10-31T03:37:58;6.35;;;3.42;;
27127;SDS011;14660;49.008;8.390;2022-10-31T03:43:01;5.97;;;3.25;;
27127;SDS011;14660;49.008;8.390;2022-10-31T03:45:35;7.03;;;3.40;;
27127;SDS011;14660;49.008;8.390;2022-10-31T03:48:09;6.05;;;3.78;;
27127;SDS011;14660;49.008;8.390;2022-10-31T03:50:41;8.80;;;3.63;;
27127;SDS011;14660;49.008;8.390;2022-10-31T03:53:24;8.75;;;4.05;;
27127;SDS011;14660;49.008;8.390;2022-10-31T03:55:57;4.18;;;3.13;;
27127;SDS011;14660;49.008;8.390;2022-10-31T03:58:48;4.93;;;3.08;;
27127;SDS011;14660;49.008;8.390;2022-10-31T04:01:37;9.98;;;4.05;;
27127;SDS011;14660;49.008;8.390;2022-10-31T04:04:15;6.45;;;3.40;;
27127;SDS011;14660;49.008;8.390;2022-10-31T04:06:44;10.57;;;4.30;;
27127;SDS011;14660;49.008;8.390;2022-10-31T04:09:12;6.82;;;4.40;;
27127;SDS011;14660;49.008;8.390;2022-10-31T04:11:42;12.57;;;3.83;;
27127;SDS011;14660;49.008;8.390;2022-10-31T04:14:19;6.47;;;3.58;;
27127;SDS011;14660;49.008;8.390;2022-10-31T04:16:50;11.30;;;4.28;;
27127;SDS011;14660;49.008;8.390;2022-10-31T04:19:28;8.65;;;3.63;;
27127;SDS011;14660;49.008;8.390;2022-10-31T04:21:58;9.65;;;3.38;;
27127;SDS011;14660;49.008;8.390;2022-10-31T04:24:26;14.23;;;5.13;;
27127;SDS011;14660;49.008;8.390;2022-10-31T04:26:52;8.77;;;4.00;;
27127;SDS011;14660;49.008;8.390;2022-10-31T04:29:19;8.25;;;5.45;;
27127;SDS011;14660;49.008;8.390;2022-10-31T04:31:46;6.25;;;3.40;;
27127;SDS011;14660;49.008;8.390;2022-10-31T04:34:14;6.30;;;3.38;;
27127;SDS011;14660;49.008;8.390;2022-10-31T04:36:40;7.10;;;3.53;;
27127;SDS011;14660;49.008;8.390;2022-10-31T04:39:06;11.48;;;3.75;;
27127;SDS011;14660;49.008;8.390;2022-10-31T04:41:33;9.15;;;3.80;;
27127;SDS011;14660;49.008;8.390;2022-10-31T04:44:01;9.95;;;3.80;;
27127;SDS011;14660;49.008;8.390;2022-10-31T04:46:29;5.63;;;2.75;;
27127;SDS011;14660;49.008;8.390;2022-10-31T04:48:58;6.50;;;2.95;;
27127;SDS011;14660;49.008;8.390;2022-10-31T04:51:24;6.53;;;2.80;;
27127;SDS011;14660;49.008;8.390;2022-10-31T04:53:59;7.90;;;3.70;;
27127;SDS011;14660;49.008;8.390;2022-10-31T04:58:54;5.47;;;3.22;;
27127;SDS011;14660;49.008;8.390;2022-10-31T05:01:22;6.60;;;2.92;;
27127;SDS011;14660;49.008;8.390;2022-10-31T05:03:47;5.13;;;3.22;;
27127;SDS011;14660;49.008;8.390;2022-10-31T05:06:15;7.72;;;4.75;;
27127;SDS011;14660;49.008;8.390;2022-10-31T05:08:42;7.80;;;3.63;;
27127;SDS011;14660;49.008;8.390;2022-10-31T05:11:11;10.88;;;4.07;;
27127;SDS011;14660;49.008;8.390;2022-10-31T05:13:39;7.80;;;2.92;;
27127;SDS011;14660;49.008;8.390;2022-10-31T05:16:06;7.07;;;4.10;;
27127;SDS011;14660;49.008;8.390;2022-10-31T05:18:33;9.05;;;3.28;;
27127;SDS011;14660;49.008;8.390;2022-10-31T05:21:00;6.13;;;3.35;;
27127;SDS011;14660;49.008;8.390;2022-10-31T05:23:26;5.32;;;2.88;;
27127;SDS011;14660;49.008;8.390;2022-10-31T05:25:54;9.90;;;3.72;;
27127;SDS011;14660;49.008;8.390;2022-10-31T05:28:22;7.78;;;3.65;;
27127;SDS011;14660;49.008;8.390;2022-10-31T05:30:49;3.90;;;2.72;;
27127;SDS011;14660;49.008;8.390;2022-10-31T05:33:17;6.95;;;3.08;;
27127;SDS011;14660;49.008;8.390;2022-10-31T05:35:44;5.43;;;2.65;;
27127;SDS011;14660;49.008;8.390;2022-10-31T05:38:11;9.05;;;4.70;;
27127;SDS011;14660;49.008;8.390;2022-10-31T05:40:39;6.70;;;2.97;;
27127;SDS011;14660;49.008;8.390;2022-10-31T05:43:04;7.22;;;3.13;;
27127;SDS011;14660;49.008;8.390;2022-10-31T05:45:32;7.60;;;2.83;;
27127;SDS011;14660;49.008;8.390;2022-10-31T05:47:59;6.28;;;2.60;;
27127;SDS011;14660;49.008;8.390;2022-10-31T05:50:28;8.38;;;4.03;;
27127;SDS011;14660;49.008;8.390;2022-10-31T05:52:58;6.65;;;2.97;;
27127;SDS011;14660;49.008;8.390;2022-10-31T05:55:26;5.25;;;3.13;;
27127;SDS011;14660;49.008;8.390;2022-10-31T05:57:54;6.30;;;3.47;;
27127;SDS011;14660;49.008;8.390;2022-10-31T06:00:25;6.28;;;4.00;;
27127;SDS011;14660;49.008;8.390;2022-10-31T06:03:03;5.65;;;3.10;;
27127;SDS011;14660;49.008;8.390;2022-10-31T06:05:32;8.95;;;2.80;;
27127;SDS011;14660;49.008;8.390;2022-10-31T06:07:58;4.85;;;2.70;;
27127;SDS011;14660;49.008;8.390;2022-10-31T06:10:26;10.60;;;3.50;;
27127;SDS011;14660;49.008;8.390;2022-10-31T06:12:55;6.30;;;3.40;;
27127;SDS011;14660;49.008;8.390;2022-10-31T06:15:22;6.75;;;3.13;;
27127;SDS011;14660;49.008;8.390;2022-10-31T06:17:57;6.68;;;3.65;;
27127;SDS011;14660;49.008;8.390;2022-10-31T06:20:28;7.50;;;3.50;;
27127;SDS011;14660;49.008;8.390;2022-10-31T06:23:06;8.23;;;3.45;;
27127;SDS011;14660;49.008;8.390;2022-10-31T06:25:34;5.20;;;3.03;;
27127;SDS011;14660;49.008;8.390;2022-10-31T06:28:08;8.02;;;3.42;;
27127;SDS011;14660;49.008;8.390;2022-10-31T06:30:35;6.70;;;3.28;;
27127;SDS011;14660;49.008;8.390;2022-10-31T06:33:03;6.90;;;3.53;;
27127;SDS011;14660;49.008;8.390;2022-10-31T06:35:31;6.55;;;3.53;;
27127;SDS011;14660;49.008;8.390;2022-10-31T06:37:57;9.90;;;3.67;;
27127;SDS011;14660;49.008;8.390;2022-10-31T06:40:22;6.72;;;4.50;;
27127;SDS011;14660;49.008;8.390;2022-10-31T06:42:59;7.82;;;3.60;;
27127;SDS011;14660;49.008;8.390;2022-10-31T06:45:27;6.70;;;3.15;;
27127;SDS011;14660;49.008;8.390;2022-10-31T06:47:55;6.97;;;4.53;;
27127;SDS011;14660;49.008;8.390;2022-10-31T06:50:22;7.20;;;3.92;;
27127;SDS011;14660;49.008;8.390;2022-10-31T06:52:51;6.05;;;3.88;;
27127;SDS011;14660;49.008;8.390;2022-10-31T06:55:40;10.50;;;5.10;;
27127;SDS011;14660;49.008;8.390;2022-10-31T06:58:08;9.98;;;4.65;;
27127;SDS011;14660;49.008;8.390;2022-10-31T07:00:37;6.90;;;3.75;;
27127;SDS011;14660;49.008;8.390;2022-10-31T07:03:05;7.80;;;4.00;;
27127;SDS011;14660;49.008;8.390;2022-10-31T07:05:36;8.93;;;4.03;;
27127;SDS011;14660;49.008;8.390;2022-10-31T07:08:03;7.38;;;4.63;;
27127;SDS011;14660;49.008;8.390;2022-10-31T07:10:32;8.65;;;4.90;;
27127;SDS011;14660;49.008;8.390;2022-10-31T07:13:02;5.55;;;3.58;;
27127;SDS011;14660;49.008;8.390;2022-10-31T07:15:35;9.50;;;4.10;;
27127;SDS011;14660;49.008;8.390;2022-10-31T07:18:06;9.75;;;4.05;;
27127;SDS011;14660;49.008;8.390;2022-10-31T07:20:36;6.35;;;3.50;;
27127;SDS011;14660;49.008;8.390;2022-10-31T07:23:03;7.63;;;3.80;;
27127;SDS011;14660;49.008;8.390;2022-10-31T07:25:30;12.95;;;4.20;;
27127;SDS011;14660;49.008;8.390;2022-10-31T07:27:57;11.95;;;4.88;;
27127;SDS011;14660;49.008;8.390;2022-10-31T07:30:24;6.18;;;4.22;;
27127;SDS011;14660;49.008;8.390;2022-10-31T07:32:52;7.05;;;3.95;;
27127;SDS011;14660;49.008;8.390;2022-10-31T07:35:20;8.40;;;4.90;;
27127;SDS011;14660;49.008;8.390;2022-10-31T07:37:57;8.68;;;4.85;;
27127;SDS011;14660;49.008;8.390;2022-10-31T07:40:33;10.15;;;5.40;;
27127;SDS011;14660;49.008;8.390;2022-10-31T07:43:00;12.45;;;5.60;;
27127;SDS011;14660;49.008;8.390;2022-10-31T07:45:26;8.10;;;4.53;;
27127;SDS011;14660;49.008;8.390;2022-10-31T07:47:53;7.65;;;5.32;;
27127;SDS011;14660;49.008;8.390;2022-10-31T07:50:21;9.07;;;3.95;;
27127;SDS011;14660;49.008;8.390;2022-10-31T07:53:02;8.40;;;4.35;;
27127;SDS011;14660;49.008;8.390;2022-10-31T07:55:35;8.85;;;4.85;;
27127;SDS011;14660;49.008;8.390;2022-10-31T07:58:06;8.90;;;4.35;;
27127;SDS011;14660;49.008;8.390;2022-10-31T08:00:40;7.32;;;4.10;;
27127;SDS011;14660;49.008;8.390;2022-10-31T08:03:10;8.43;;;3.92;;
27127;SDS011;14660;49.008;8.390;2022-10-31T08:05:38;8.00;;;4.28;;
27127;SDS011;14660;49.008;8.390;2022-10-31T08:08:06;7.35;;;4.50;;
27127;SDS011;14660;49.008;8.390;2022-10-31T08:10:33;9.13;;;4.07;;
27127;SDS011;14660;49.008;8.390;2022-10-31T08:13:04;12.85;;;5.03;;
27127;SDS011;14660;49.008;8.390;2022-10-31T08:15:33;11.45;;;5.35;;
27127;SDS011;14660;49.008;8.390;2022-10-31T08:18:03;10.52;;;4.40;;
27127;SDS011;14660;49.008;8.390;2022-10-31T08:20:31;6.20;;;4.22;;
27127;SDS011;14660;49.008;8.390;2022-10-31T08:23:00;6.70;;;3.78;;
27127;SDS011;14660;49.008;8.390;2022-10-31T08:25:30;9.50;;;4.10;;
27127;SDS011;14660;49.008;8.390;2022-10-31T08:27:58;6.80;;;4.43;;
27127;SDS011;14660;49.008;8.390;2022-10-31T08:30:28;7.40;;;3.85;;
27127;SDS011;14660;49.008;8.390;2022-10-31T08:33:04;8.65;;;3.55;;
27127;SDS011;14660;49.008;8.390;2022-10-31T08:35:48;4.03;;;3.47;;
27127;SDS011;14660;49.008;8.390;2022-10-31T08:38:15;7.93;;;3.33;;
27127;SDS011;14660;49.008;8.390;2022-10-31T08:40:42;7.85;;;3.60;;
27127;SDS011;14660;49.008;8.390;2022-10-31T08:43:15;6.50;;;3.47;;
27127;SDS011;14660;49.008;8.390;2022-10-31T08:45:43;6.03;;;4.32;;
27127;SDS011;14660;49.008;8.390;2022-10-31T08:48:13;6.35;;;3.55;;
27127;SDS011;14660;49.008;8.390;2022-10-31T08:50:45;9.25;;;4.00;;
27127;SDS011;14660;49.008;8.390;2022-10-31T08:55:58;9.52;;;4.35;;
27127;SDS011;14660;49.008;8.390;2022-10-31T08:58:25;7.55;;;5.00;;
27127;SDS011;14660;49.008;8.390;2022-10-31T09:00:54;6.05;;;3.17;;
27127;SDS011;14660;49.008;8.390;2022-10-31T09:06:08;8.88;;;3.80;;
27127;SDS011;14660;49.008;8.390;2022-10-31T09:08:36;9.02;;;4.10;;
27127;SDS011;14660;49.008;8.390;2022-10-31T09:11:04;8.48;;;3.88;;
27127;SDS011;14660;49.008;8.390;2022-10-31T09:13:31;5.75;;;3.08;;
27127;SDS011;14660;49.008;8.390;2022-10-31T09:15:58;6.65;;;3.35;;
27127;SDS011;14660;49.008;8.390;2022-10-31T09:18:26;8.52;;;4.10;;
27127;SDS011;14660;49.008;8.390;2022-10-31T09:21:02;7.40;;;4.03;;
27127;SDS011;14660;49.008;8.390;2022-10-31T09:23:30;6.07;;;3.55;;
27127;SDS011;14660;49.008;8.390;2022-10-31T09:25:59;6.28;;;3.45;;
27127;SDS011;14660;49.008;8.390;2022-10-31T09:28:30;5.95;;;3.80;;
27127;SDS011;14660;49.008;8.390;2022-10-31T09:31:01;8.60;;;3.85;;
27127;SDS011;14660;49.008;8.390;2022-10-31T09:33:28;7.72;;;4.43;;
27127;SDS011;14660;49.008;8.390;2022-10-31T09:35:57;9.80;;;4.53;;
27127;SDS011;14660;49.008;8.390;2022-10-31T09:38:24;8.65;;;3.90;;
27127;SDS011;14660;49.008;8.390;2022-10-31T09:50:20;9.40;;;4.03;;
27127;SDS011;14660;49.008;8.390;2022-10-31T09:53:01;9.43;;;4.63;;
27127;SDS011;14660;49.008;8.390;2022-10-31T09:55:42;9.02;;;4.47;;
27127;SDS011;14660;49.008;8.390;2022-10-31T09:58:25;8.23;;;4.18;;
27127;SDS011;14660;49.008;8.390;2022-10-31T10:07:29;9.68;;;4.28;;
27127;SDS011;14660;49.008;8.390;2022-10-31T10:09:51;7.45;;;3.92;;
27127;SDS011;14660;49.008;8.390;2022-10-31T10:15:36;9.40;;;4.30;;
27127;SDS011;14660;49.008;8.390;2022-10-31T10:37:36;22.95;;;12.82;;
27127;SDS011;14660;49.008;8.390;2022-10-31T10:39:49;12.93;;;6.15;;
27127;SDS011;14660;49.008;8.390;2022-10-31T10:42:21;7.40;;;4.55;;
27127;SDS011;14660;49.008;8.390;2022-10-31T10:45:14;7.35;;;3.97;;
27127;SDS011;14660;49.008;8.390;2022-10-31T10:48:08;12.90;;;4.45;;
27127;SDS011;14660;49.008;8.390;2022-10-31T10:51:04;9.88;;;4.68;;
27127;SDS011;14660;49.008;8.390;2022-10-31T10:56:51;8.50;;;4.80;;
27127;SDS011;14660;49.008;8.390;2022-10-31T10:59:40;5.97;;;3.53;;
27127;SDS011;14660;49.008;8.390;2022-10-31T11:02:39;9.02;;;4.07;;
27127;SDS011;14660;49.008;8.390;2022-10-31T11:05:01;8.70;;;3.73;;
27127;SDS011;14660;49.008;8.390;2022-10-31T11:07:39;5.90;;;3.83;;
27127;SDS011;14660;49.008;8.390;2022-10-31T11:10:11;17.42;;;5.05;;
27127;SDS011;14660;49.008;8.390;2022-10-31T11:12:44;7.00;;;4.20;;
27127;SDS011;14660;49.008;8.390;2022-10-31T11:15:24;7.97;;;4.07;;
27127;SDS011;14660;49.008;8.390;2022-10-31T11:17:53;5.75;;;3.83;;
27127;SDS011;14660;49.008;8.390;2022-10-31T11:20:35;6.03;;;3.75;;
27127;SDS011;14660;49.008;8.390;2022-10-31T11:23:15;7.45;;;4.20;;
27127;SDS011;14660;49.008;8.390;2022-10-31T11:28:44;6.65;;;4.18;;
27127;SDS011;14660;49.008;8.390;2022-10-31T11:31:26;5.97;;;3.60;;
27127;SDS011;14660;49.008;8.390;2022-10-31T11:34:00;6.28;;;3.17;;
27127;SDS011;14660;49.008;8.390;2022-10-31T11:36:39;7.75;;;3.55;;
27127;SDS011;14660;49.008;8.390;2022-10-31T11:39:20;5.53;;;3.70;;
27127;SDS011;14660;49.008;8.390;2022-10-31T11:41:59;9.40;;;4.53;;
27127;SDS011;14660;49.008;8.390;2022-10-31T11:44:28;10.60;;;4.10;;
27127;SDS011;14660;49.008;8.390;2022-10-31T11:47:02;7.35;;;4.85;;
27127;SDS011;14660;49.008;8.390;2022-10-31T11:52:28;8.55;;;5.18;;
27127;SDS011;14660;49.008;8.390;2022-10-31T11:57:57;11.73;;;4.85;;
27127;SDS011;14660;49.008;8.390;2022-10-31T12:00:39;7.03;;;4.00;;
27127;SDS011;14660;49.008;8.390;2022-10-31T12:06:38;6.50;;;4.47;;
27127;SDS011;14660;49.008;8.390;2022-10-31T12:09:27;6.53;;;4.00;;
27127;SDS011;14660;49.008;8.390;2022-10-31T12:45:58;6.28;;;3.92;;
27127;SDS011;14660;49.008;8.390;2022-10-31T13:00:38;8.25;;;3.85;;
27127;SDS011;14660;49.008;8.390;2022-10-31T13:05:58;7.10;;;4.35;;
27127;SDS011;14660;49.008;8.390;2022-10-31T13:08:35;9.73;;;4.43;;
27127;SDS011;14660;49.008;8.390;2022-10-31T13:11:14;11.90;;;5.28;;
27127;SDS011;14660;49.008;8.390;2022-10-31T13:16:46;8.05;;;5.10;;
27127;SDS011;14660;49.008;8.390;2022-10-31T13:19:19;6.85;;;4.85;;
27127;SDS011;14660;49.008;8.390;2022-10-31T13:22:09;9.68;;;4.50;;
27127;SDS011;14660;49.008;8.390;2022-10-31T13:28:05;11.10;;;6.40;;
27127;SDS011;14660;49.008;8.390;2022-10-31T13:30:53;7.30;;;5.50;;
27127;SDS011;14660;49.008;8.390;2022-10-31T13:33:55;9.05;;;4.85;;
27127;SDS011;14660;49.008;8.390;2022-10-31T13:39:44;13.10;;;7.03;;
27127;SDS011;14660;49.008;8.390;2022-10-31T13:45:19;6.72;;;4.75;;
27127;SDS011;14660;49.008;8.390;2022-10-31T13:48:18;8.23;;;5.50;;
27127;SDS011;14660;49.008;8.390;2022-10-31T13:50:59;10.60;;;5.63;;
27127;SDS011;14660;49.008;8.390;2022-10-31T13:56:31;8.15;;;4.65;;
27127;SDS011;14660;49.008;8.390;2022-10-31T14:02:01;8.48;;;4.70;;
27127;SDS011;14660;49.008;8.390;2022-10-31T14:07:31;6.75;;;4.40;;
27127;SDS011;14660;49.008;8.390;2022-10-31T14:19:07;12.25;;;4.93;;
27127;SDS011;14660;49.008;8.390;2022-10-31T14:21:43;9.02;;;5.57;;
27127;SDS011;14660;49.008;8.390;2022-10-31T14:30:36;12.38;;;5.30;;
27127;SDS011;14660;49.008;8.390;2022-10-31T14:33:18;8.40;;;4.10;;
27127;SDS011;14660;49.008;8.390;2022-10-31T14:50:56;12.57;;;6.47;;
27127;SDS011;14660;49.008;8.390;2022-10-31T14:53:35;11.10;;;5.72;;
27127;SDS011;14660;49.008;8.390;2022-10-31T14:56:10;11.43;;;6.70;;
27127;SDS011;14660;49.008;8.390;2022-10-31T14:58:47;21.38;;;10.75;;
27127;SDS011;14660;49.008;8.390;2022-10-31T15:06:54;11.95;;;6.68;;
27127;SDS011;14660;49.008;8.390;2022-10-31T15:09:30;10.75;;;6.22;;
27127;SDS011;14660;49.008;8.390;2022-10-31T15:11:59;12.45;;;7.30;;
27127;SDS011;14660;49.008;8.390;2022-10-31T15:14:47;16.52;;;8.93;;
27127;SDS011;14660;49.008;8.390;2022-10-31T15:17:15;17.05;;;8.38;;
27127;SDS011;14660;49.008;8.390;2022-10-31T15:19:44;18.02;;;8.73;;
27127;SDS011;14660;49.008;8.390;2022-10-31T15:22:14;19.20;;;9.25;;
27127;SDS011;14660;49.008;8.390;2022-10-31T15:24:42;16.20;;;9.60;;
27127;SDS011;14660;49.008;8.390;2022-10-31T15:27:14;20.67;;;9.85;;
27127;SDS011;14660;49.008;8.390;2022-10-31T15:29:53;9.63;;;7.43;;
27127;SDS011;14660;49.008;8.390;2022-10-31T15:32:25;10.90;;;6.22;;
27127;SDS011;14660;49.008;8.390;2022-10-31T15:34:58;13.77;;;8.13;;
27127;SDS011;14660;49.008;8.390;2022-10-31T15:37:25;25.27;;;15.38;;
27127;SDS011;14660;49.008;8.390;2022-10-31T15:39:53;20.25;;;10.10;;
27127;SDS011;14660;49.008;8.390;2022-10-31T15:50:53;13.13;;;6.88;;
27127;SDS011;14660;49.008;8.390;2022-10-31T15:56:26;10.75;;;6.88;;
27127;SDS011;14660;49.008;8.390;2022-10-31T15:59:04;35.83;;;18.27;;
27127;SDS011;14660;49.008;8.390;2022-10-31T16:01:39;22.88;;;11.18;;
27127;SDS011;14660;49.008;8.390;2022-10-31T16:10:50;9.65;;;5.68;;
27127;SDS011;14660;49.008;8.390;2022-10-31T16:13:40;7.15;;;5.18;;
27127;SDS011;14660;49.008;8.390;2022-10-31T16:22:40;13.52;;;6.45;;
27127;SDS011;14660;49.008;8.390;2022-10-31T16:25:24;9.75;;;5.88;;
27127;SDS011;14660;49.008;8.390;2022-10-31T16:27:53;9.63;;;5.38;;
27127;SDS011;14660;49.008;8.390;2022-10-31T16:38:52;12.10;;;6.35;;
27127;SDS011;14660;49.008;8.390;2022-10-31T16:41:22;8.60;;;6.25;;
27127;SDS011;14660;49.008;8.390;2022-10-31T16:43:50;11.38;;;6.70;;
27127;SDS011;14660;49.008;8.390;2022-10-31T16:46:24;10.30;;;6.10;;
27127;SDS011;14660;49.008;8.390;2022-10-31T16:48:52;10.10;;;5.05;;
27127;SDS011;14660;49.008;8.390;2022-10-31T16:51:29;27.73;;;15.52;;
27127;SDS011;14660;49.008;8.390;2022-10-31T16:53:55;43.95;;;23.75;;
27127;SDS011;14660;49.008;8.390;2022-10-31T16:56:27;40.47;;;20.70;;
27127;SDS011;14660;49.008;8.390;2022-10-31T16:59:00;31.88;;;17.15;;
27127;SDS011;14660;49.008;8.390;2022-10-31T17:01:28;22.90;;;11.05;;
27127;SDS011;14660;49.008;8.390;2022-10-31T17:03:56;17.85;;;10.82;;
27127;SDS011;14660;49.008;8.390;2022-10-31T17:06:25;10.80;;;7.03;;
27127;SDS011;14660;49.008;8.390;2022-10-31T17:08:54;8.93;;;6.85;;
27127;SDS011;14660;49.008;8.390;2022-10-31T17:11:22;11.43;;;6.85;;
27127;SDS011;14660;49.008;8.390;2022-10-31T17:13:51;18.33;;;10.93;;
27127;SDS011;14660;49.008;8.390;2022-10-31T17:16:25;13.43;;;7.82;;
27127;SDS011;14660;49.008;8.390;2022-10-31T17:18:52;10.00;;;7.15;;
27127;SDS011;14660;49.008;8.390;2022-10-31T17:21:22;12.45;;;7.68;;
27127;SDS011;14660;49.008;8.390;2022-10-31T17:23:54;16.08;;;9.73;;
27127;SDS011;14660;49.008;8.390;2022-10-31T17:26:20;13.98;;;8.75;;
27127;SDS011;14660;49.008;8.390;2022-10-31T17:28:46;12.95;;;8.23;;
27127;SDS011;14660;49.008;8.390;2022-10-31T17:31:39;12.95;;;7.55;;
27127;SDS011;14660;49.008;8.390;2022-10-31T17:34:07;13.52;;;8.48;;
27127;SDS011;14660;49.008;8.390;2022-10-31T17:36:33;12.27;;;8.35;;
27127;SDS011;14660;49.008;8.390;2022-10-31T17:39:00;12.00;;;8.02;;
27127;SDS011;14660;49.008;8.390;2022-10-31T17:41:29;13.20;;;8.20;;
27127;SDS011;14660;49.008;8.390;2022-10-31T17:43:56;15.60;;;9.20;;
27127;SDS011;14660;49.008;8.390;2022-10-31T17:46:31;31.35;;;17.90;;
27127;SDS011;14660;49.008;8.390;2022-10-31T17:49:02;25.95;;;14.02;;
27127;SDS011;14660;49.008;8.390;2022-10-31T17:51:30;24.88;;;13.00;;
27127;SDS011;14660;49.008;8.390;2022-10-31T17:53:57;14.82;;;10.15;;
27127;SDS011;14660;49.008;8.390;2022-10-31T17:56:25;18.50;;;9.00;;
27127;SDS011;14660;49.008;8.390;2022-10-31T17:58:52;13.65;;;6.75;;
27127;SDS011;14660;49.008;8.390;2022-10-31T18:01:27;8.18;;;5.63;;
27127;SDS011;14660;49.008;8.390;2022-10-31T18:03:56;9.55;;;6.25;;
27127;SDS011;14660;49.008;8.390;2022-10-31T18:06:25;10.85;;;6.78;;
27127;SDS011;14660;49.008;8.390;2022-10-31T18:09:02;11.07;;;6.90;;
27127;SDS011;14660;49.008;8.390;2022-10-31T18:11:30;11.48;;;6.82;;
27127;SDS011;14660;49.008;8.390;2022-10-31T18:14:06;11.23;;;7.40;;
27127;SDS011;14660;49.008;8.390;2022-10-31T18:16:34;11.20;;;7.75;;
27127;SDS011;14660;49.008;8.390;2022-10-31T18:19:12;16.30;;;8.20;;
27127;SDS011;14660;49.008;8.390;2022-10-31T18:21:40;11.05;;;7.47;;
27127;SDS011;14660;49.008;8.390;2022-10-31T18:24:08;13.52;;;7.28;;
27127;SDS011;14660;49.008;8.390;2022-10-31T18:26:36;12.75;;;8.20;;
27127;SDS011;14660;49.008;8.390;2022-10-31T18:29:05;12.68;;;7.75;;
27127;SDS011;14660;49.008;8.390;2022-10-31T18:31:30;11.35;;;7.68;;
27127;SDS011;14660;49.008;8.390;2022-10-31T18:33:57;13.20;;;8.02;;
27127;SDS011;14660;49.008;8.390;2022-10-31T18:36:25;15.57;;;8.52;;
27127;SDS011;14660;49.008;8.390;2022-10-31T18:38:59;13.55;;;8.50;;
27127;SDS011;14660;49.008;8.390;2022-10-31T18:41:27;12.25;;;8.27;;
27127;SDS011;14660;49.008;8.390;2022-10-31T18:43:57;17.95;;;8.35;;
27127;SDS011;14660;49.008;8.390;2022-10-31T18:46:25;15.77;;;9.30;;
27127;SDS011;14660;49.008;8.390;2022-10-31T18:48:53;13.32;;;7.88;;
27127;SDS011;14660;49.008;8.390;2022-10-31T18:51:20;9.32;;;7.05;;
27127;SDS011;14660;49.008;8.390;2022-10-31T18:53:51;13.70;;;7.43;;
27127;SDS011;14660;49.008;8.390;2022-10-31T18:56:19;10.95;;;6.53;;
27127;SDS011;14660;49.008;8.390;2022-10-31T18:58:47;12.25;;;7.22;;
27127;SDS011;14660;49.008;8.390;2022-10-31T19:01:16;11.50;;;6.70;;
27127;SDS011;14660;49.008;8.390;2022-10-31T19:03:50;10.52;;;7.18;;
27127;SDS011;14660;49.008;8.390;2022-10-31T19:06:17;14.00;;;6.85;;
27127;SDS011;14660;49.008;8.390;2022-10-31T19:08:45;10.02;;;7.05;;
27127;SDS011;14660;49.008;8.390;2022-10-31T19:11:12;9.57;;;6.43;;
27127;SDS011;14660;49.008;8.390;2022-10-31T19:13:40;12.93;;;6.50;;
27127;SDS011;14660;49.008;8.390;2022-10-31T19:16:13;12.38;;;7.45;;
27127;SDS011;14660;49.008;8.390;2022-10-31T19:18:40;12.13;;;6.80;;
27127;SDS011;14660;49.008;8.390;2022-10-31T19:21:08;13.13;;;6.53;;
27127;SDS011;14660;49.008;8.390;2022-10-31T19:23:37;12.18;;;7.13;;
27127;SDS011;14660;49.008;8.390;2022-10-31T19:26:03;9.27;;;6.40;;
27127;SDS011;14660;49.008;8.390;2022-10-31T19:28:30;13.15;;;6.72;;